Time;durP1;ratioP1;P1;durP2;ratioP2;P2;SDS_P1;SDS_P2;PMS_P1;PMS_P2;Temp;Humidity;BMP_temperature;BMP_pressure;BME280_temperature;BME280_humidity;BME280_pressure;Samples;Min_cycle;Max_cycle;Signal;HPM_P1;HPM_P2
2023/11/12 00:01:40;;;;;;;55.93;2.57;;;;;;;;;;5051064;28;20466;-73
2023/11/12 00:04:07;;;;;;;56.00;2.10;;;;;;;;;;5050850;28;20449;-72
2023/11/12 00:06:34;;;;;;;56.37;2.50;;;;;;;;;;5051375;28;20450;-72
2023/11/12 00:09:04;;;;;;;56.00;2.30;;;;;;;;;;5042726;28;20442;-72
2023/11/12 00:11:35;;;;;;;56.20;2.50;;;;;;;;;;5051316;28;20470;-73
2023/11/12 00:14:03;;;;;;;55.77;2.33;;;;;;;;;;5042999;28;20569;-72
2023/11/12 00:16:30;;;;;;;55.70;2.50;;;;;;;;;;5051188;28;20528;-72
2023/11/12 00:18:57;;;;;;;55.43;2.10;;;;;;;;;;5051191;28;20540;-72
2023/11/12 00:21:25;;;;;;;55.87;2.20;;;;;;;;;;5050942;28;20473;-72
2023/11/12 00:23:52;;;;;;;57.27;2.60;;;;;;;;;;5050463;28;20451;-72
2023/11/12 00:26:21;;;;;;;55.77;2.10;;;;;;;;;;5050802;28;20452;-72
2023/11/12 00:28:49;;;;;;;55.30;1.93;;;;;;;;;;5051148;28;20460;-72
2023/11/12 00:31:16;;;;;;;55.50;2.30;;;;;;;;;;5050673;28;20466;-72
2023/11/12 00:33:43;;;;;;;55.37;2.07;;;;;;;;;;5050900;28;20493;-72
2023/11/12 00:36:10;;;;;;;55.03;2.20;;;;;;;;;;5051114;28;20537;-73
2023/11/12 00:38:37;;;;;;;55.87;2.47;;;;;;;;;;5050794;28;20450;-72
2023/11/12 00:41:05;;;;;;;55.77;2.10;;;;;;;;;;5050912;28;21000;-73
2023/11/12 00:43:34;;;;;;;55.53;2.00;;;;;;;;;;5050940;28;20442;-73
2023/11/12 00:46:04;;;;;;;56.47;2.30;;;;;;;;;;5050880;28;20821;-72
2023/11/12 00:48:31;;;;;;;55.37;2.20;;;;;;;;;;5050304;28;20501;-72
2023/11/12 00:50:58;;;;;;;55.90;2.30;;;;;;;;;;5050484;28;20469;-72
2023/11/12 00:53:27;;;;;;;55.37;1.93;;;;;;;;;;5050238;28;20857;-72
2023/11/12 00:55:55;;;;;;;56.10;2.30;;;;;;;;;;5050591;28;20454;-72
2023/11/12 00:58:22;;;;;;;55.70;1.97;;;;;;;;;;5050408;28;20460;-72
2023/11/12 01:00:49;;;;;;;55.90;2.03;;;;;;;;;;5050458;28;20468;-72
2023/11/12 01:03:17;;;;;;;56.10;2.03;;;;;;;;;;5050643;28;20541;-72
2023/11/12 01:05:45;;;;;;;56.10;2.20;;;;;;;;;;5050421;28;20861;-73
2023/11/12 01:08:12;;;;;;;56.00;2.00;;;;;;;;;;5050337;28;20458;-73
2023/11/12 01:10:39;;;;;;;55.87;2.53;;;;;;;;;;5050109;28;21040;-73
2023/11/12 01:13:06;;;;;;;55.97;1.90;;;;;;;;;;5050066;28;20541;-73
2023/11/12 01:15:33;;;;;;;55.80;2.10;;;;;;;;;;5053874;28;20481;-73
2023/11/12 01:18:01;;;;;;;55.87;2.40;;;;;;;;;;5053815;28;20441;-72
2023/11/12 01:20:30;;;;;;;56.00;2.10;;;;;;;;;;5054017;28;20466;-72
2023/11/12 01:22:57;;;;;;;55.80;2.10;;;;;;;;;;5053753;28;20489;-72
2023/11/12 01:25:24;;;;;;;56.10;2.30;;;;;;;;;;5054248;28;20446;-72
2023/11/12 01:27:51;;;;;;;55.80;2.27;;;;;;;;;;5053653;28;20461;-72
2023/11/12 01:30:18;;;;;;;55.97;2.40;;;;;;;;;;5054209;28;20461;-72
2023/11/12 01:32:45;;;;;;;56.00;2.73;;;;;;;;;;5053559;28;20450;-72
2023/11/12 01:35:11;;;;;;;55.80;2.10;;;;;;;;;;5053458;28;20512;-72
2023/11/12 01:37:40;;;;;;;57.13;2.57;;;;;;;;;;5046512;28;20546;-72
2023/11/12 01:40:08;;;;;;;55.80;2.40;;;;;;;;;;5045250;28;20445;-72
2023/11/12 01:42:35;;;;;;;55.67;2.20;;;;;;;;;;5053470;28;20846;-73
2023/11/12 01:45:03;;;;;;;56.00;2.20;;;;;;;;;;5053289;28;20448;-72
2023/11/12 01:47:31;;;;;;;55.87;2.33;;;;;;;;;;5053403;28;20550;-72
2023/11/12 01:49:58;;;;;;;56.00;2.50;;;;;;;;;;5053358;28;20537;-73
2023/11/12 01:52:25;;;;;;;55.80;2.10;;;;;;;;;;5053128;28;20557;-72
2023/11/12 01:54:54;;;;;;;55.97;2.07;;;;;;;;;;5053036;28;20496;-73
2023/11/12 01:57:22;;;;;;;55.63;2.13;;;;;;;;;;5053556;28;20453;-72
2023/11/12 01:59:49;;;;;;;55.67;2.20;;;;;;;;;;5053295;28;20458;-72
2023/11/12 02:02:17;;;;;;;55.97;2.00;;;;;;;;;;5053342;28;20553;-72
2023/11/12 02:04:44;;;;;;;55.60;2.20;;;;;;;;;;5053370;28;20454;-72
2023/11/12 02:07:12;;;;;;;55.67;2.00;;;;;;;;;;5052935;28;20460;-72
2023/11/12 02:09:39;;;;;;;58.90;2.83;;;;;;;;;;5053122;28;20477;-72
2023/11/12 02:12:08;;;;;;;55.37;2.40;;;;;;;;;;5052902;28;21013;-72
2023/11/12 02:14:37;;;;;;;56.00;2.20;;;;;;;;;;5052811;28;20854;-72
2023/11/12 02:17:05;;;;;;;56.00;2.13;;;;;;;;;;5052877;28;20989;-72
2023/11/12 02:19:32;;;;;;;55.73;2.30;;;;;;;;;;5052999;28;20581;-73
2023/11/12 02:21:59;;;;;;;56.00;2.60;;;;;;;;;;5052899;28;20480;-72
2023/11/12 02:24:28;;;;;;;55.80;2.00;;;;;;;;;;5052881;28;20461;-72
2023/11/12 02:26:55;;;;;;;55.73;2.60;;;;;;;;;;5051549;28;20458;-71
2023/11/12 02:29:22;;;;;;;56.00;2.20;;;;;;;;;;5052309;28;20458;-72
2023/11/12 02:31:49;;;;;;;55.90;2.40;;;;;;;;;;5052415;28;20547;-72
2023/11/12 02:34:18;;;;;;;55.90;1.97;;;;;;;;;;5052530;28;20544;-72
2023/11/12 02:36:45;;;;;;;55.93;2.60;;;;;;;;;;5052273;28;20884;-72
2023/11/12 02:39:13;;;;;;;56.03;2.03;;;;;;;;;;5052701;28;20446;-72
2023/11/12 02:41:44;;;;;;;55.90;2.60;;;;;;;;;;5052470;28;20832;-72
2023/11/12 02:44:13;;;;;;;55.50;2.10;;;;;;;;;;5052859;28;20458;-72
2023/11/12 02:46:40;;;;;;;55.93;2.40;;;;;;;;;;5052684;28;20529;-72
2023/11/12 02:49:13;;;;;;;56.00;2.77;;;;;;;;;;5052614;28;20825;-72
2023/11/12 02:51:40;;;;;;;55.80;2.03;;;;;;;;;;5052227;28;20466;-72
2023/11/12 02:54:07;;;;;;;55.77;2.50;;;;;;;;;;5051935;28;21001;-73
2023/11/12 02:56:35;;;;;;;55.53;2.30;;;;;;;;;;5052091;28;20447;-73
2023/11/12 02:59:03;;;;;;;55.90;2.27;;;;;;;;;;5051421;28;20450;-73
2023/11/12 03:01:30;;;;;;;55.90;2.40;;;;;;;;;;5052336;28;20471;-73
2023/11/12 03:03:59;;;;;;;55.90;2.10;;;;;;;;;;5052049;28;20446;-72
2023/11/12 03:06:26;;;;;;;55.40;2.10;;;;;;;;;;5052421;28;20454;-73
2023/11/12 03:08:54;;;;;;;56.00;2.30;;;;;;;;;;5052204;28;21050;-73
2023/11/12 03:11:21;;;;;;;54.97;2.00;;;;;;;;;;5052136;28;20480;-73
2023/11/12 03:13:51;;;;;;;56.00;2.40;;;;;;;;;;5051996;28;20849;-73
2023/11/12 03:16:20;;;;;;;55.97;2.40;;;;;;;;;;5052139;28;20454;-74
2023/11/12 03:18:50;;;;;;;55.67;2.30;;;;;;;;;;5051648;28;20449;-72
2023/11/12 03:21:18;;;;;;;55.47;2.20;;;;;;;;;;5051547;28;20520;-72
2023/11/12 03:23:45;;;;;;;55.47;1.80;;;;;;;;;;5051821;28;20934;-72
2023/11/12 03:26:12;;;;;;;56.17;2.70;;;;;;;;;;5051864;28;20455;-72
2023/11/12 03:28:39;;;;;;;55.47;2.20;;;;;;;;;;5051539;28;20446;-72
2023/11/12 03:31:06;;;;;;;55.97;2.17;;;;;;;;;;5051339;28;20470;-72
2023/11/12 03:33:35;;;;;;;55.77;2.33;;;;;;;;;;5051561;28;20906;-72
2023/11/12 03:36:02;;;;;;;55.93;2.60;;;;;;;;;;5050358;28;20450;-72
2023/11/12 03:38:29;;;;;;;55.97;2.47;;;;;;;;;;5051116;28;20533;-72
2023/11/12 03:40:57;;;;;;;55.73;2.40;;;;;;;;;;5051182;28;20472;-71
2023/11/12 03:43:24;;;;;;;55.93;2.30;;;;;;;;;;5051082;28;20456;-72
2023/11/12 03:45:51;;;;;;;55.90;2.50;;;;;;;;;;5051164;28;20443;-71
2023/11/12 03:48:19;;;;;;;56.27;2.60;;;;;;;;;;5051118;28;20934;-71
2023/11/12 03:50:47;;;;;;;55.90;2.60;;;;;;;;;;5051512;28;20465;-71
2023/11/12 03:53:14;;;;;;;56.07;2.30;;;;;;;;;;5043396;28;20456;-72
2023/11/12 03:55:41;;;;;;;56.10;3.17;;;;;;;;;;5051410;28;20495;-72
2023/11/12 03:58:08;;;;;;;56.13;2.73;;;;;;;;;;5051027;28;20948;-73
2023/11/12 04:00:37;;;;;;;55.97;2.77;;;;;;;;;;5051373;28;20833;-72
2023/11/12 04:03:04;;;;;;;56.13;3.13;;;;;;;;;;5050855;28;20934;-72
2023/11/12 04:05:32;;;;;;;56.03;2.70;;;;;;;;;;5051138;28;20460;-72
2023/11/12 04:08:01;;;;;;;56.17;2.40;;;;;;;;;;5051041;28;20477;-72
2023/11/12 04:10:28;;;;;;;56.10;2.90;;;;;;;;;;5050942;28;20828;-72
2023/11/12 04:12:55;;;;;;;56.10;2.97;;;;;;;;;;5050824;28;20568;-72
2023/11/12 04:15:22;;;;;;;55.90;2.60;;;;;;;;;;5050635;28;20577;-72
2023/11/12 04:17:50;;;;;;;56.37;3.17;;;;;;;;;;5050730;28;20939;-72
2023/11/12 04:20:18;;;;;;;56.10;2.90;;;;;;;;;;5051008;28;20508;-72
2023/11/12 04:22:45;;;;;;;56.30;2.40;;;;;;;;;;5050738;28;20536;-72
2023/11/12 04:25:13;;;;;;;56.17;2.30;;;;;;;;;;5050782;28;20640;-72
2023/11/12 04:27:40;;;;;;;56.07;2.67;;;;;;;;;;5050698;28;20222;-72
2023/11/12 04:30:08;;;;;;;56.80;2.78;;;;;;;;;;5050784;28;20517;-72
2023/11/12 04:32:36;;;;;;;56.47;3.10;;;;;;;;;;5051115;28;20293;-72
2023/11/12 04:35:03;;;;;;;56.13;2.97;;;;;;;;;;5050848;28;20489;-72
2023/11/12 04:37:32;;;;;;;56.17;2.65;;;;;;;;;;5050899;28;20449;-72
2023/11/12 04:40:00;;;;;;;55.97;2.60;;;;;;;;;;5050766;28;20298;-72
2023/11/12 04:42:28;;;;;;;55.93;2.67;;;;;;;;;;5050373;28;20453;-72
2023/11/12 04:44:55;;;;;;;56.08;2.38;;;;;;;;;;5050622;28;20927;-72
2023/11/12 04:47:24;;;;;;;55.97;2.90;;;;;;;;;;5050733;28;20210;-72
2023/11/12 04:49:51;;;;;;;56.30;2.60;;;;;;;;;;5053185;28;20945;-72
2023/11/12 04:52:20;;;;;;;56.17;2.80;;;;;;;;;;5054523;28;20226;-72
2023/11/12 04:54:50;;;;;;;56.30;2.60;;;;;;;;;;5054609;28;21058;-72
2023/11/12 04:57:18;;;;;;;56.20;2.50;;;;;;;;;;5054460;28;21242;-72
2023/11/12 04:59:46;;;;;;;56.13;3.00;;;;;;;;;;5054768;28;20215;-72
2023/11/12 05:02:14;;;;;;;56.17;3.00;;;;;;;;;;5054382;28;20465;-72
2023/11/12 05:04:42;;;;;;;56.95;3.28;;;;;;;;;;5054565;28;20756;-72
2023/11/12 05:07:09;;;;;;;56.28;2.70;;;;;;;;;;5054114;28;20206;-72
2023/11/12 05:09:36;;;;;;;56.28;2.95;;;;;;;;;;5054249;28;20220;-72
2023/11/12 05:12:03;;;;;;;56.50;3.27;;;;;;;;;;5054259;28;20231;-72
2023/11/12 05:14:30;;;;;;;56.07;2.93;;;;;;;;;;5054426;28;20971;-72
2023/11/12 05:16:59;;;;;;;56.20;2.60;;;;;;;;;;5054298;28;20483;-72
2023/11/12 05:19:26;;;;;;;56.08;2.67;;;;;;;;;;5054268;28;20213;-72
2023/11/12 05:21:53;;;;;;;56.10;2.80;;;;;;;;;;5053850;28;20238;-72
2023/11/12 05:24:20;;;;;;;56.15;2.80;;;;;;;;;;5054301;28;20211;-72
2023/11/12 05:26:47;;;;;;;56.17;2.50;;;;;;;;;;5053992;28;20221;-72
2023/11/12 05:29:14;;;;;;;56.08;2.80;;;;;;;;;;5053960;28;20456;-72
2023/11/12 05:31:41;;;;;;;56.37;3.07;;;;;;;;;;5053787;28;20718;-72
2023/11/12 05:34:12;;;;;;;56.40;3.20;;;;;;;;;;5053764;28;20457;-72
2023/11/12 05:36:40;;;;;;;56.10;2.80;;;;;;;;;;5053154;28;20453;-72
2023/11/12 05:39:07;;;;;;;56.03;2.90;;;;;;;;;;5053713;28;20444;-72
2023/11/12 05:41:34;;;;;;;56.70;3.17;;;;;;;;;;5053845;28;20844;-72
2023/11/12 05:44:02;;;;;;;56.07;2.77;;;;;;;;;;5053439;28;20545;-72
2023/11/12 05:46:29;;;;;;;55.90;2.70;;;;;;;;;;5053767;28;20437;-72
2023/11/12 05:48:56;;;;;;;56.23;3.30;;;;;;;;;;5053502;28;20556;-72
2023/11/12 05:51:24;;;;;;;56.08;2.70;;;;;;;;;;5053648;28;20848;-72
2023/11/12 05:53:52;;;;;;;56.58;3.25;;;;;;;;;;5053458;28;20207;-72
2023/11/12 05:56:19;;;;;;;56.03;2.83;;;;;;;;;;5053582;28;20312;-72
2023/11/12 05:58:46;;;;;;;56.50;3.10;;;;;;;;;;5053516;28;20446;-72
2023/11/12 06:01:13;;;;;;;56.20;2.80;;;;;;;;;;5052060;28;20235;-72
2023/11/12 06:03:41;;;;;;;56.17;2.75;;;;;;;;;;5053176;28;20477;-72
2023/11/12 06:06:08;;;;;;;56.13;3.17;;;;;;;;;;5053136;28;20295;-72
2023/11/12 06:08:39;;;;;;;56.30;2.85;;;;;;;;;;5053238;28;20290;-72
2023/11/12 06:11:06;;;;;;;56.27;2.77;;;;;;;;;;5053240;28;20242;-72
2023/11/12 06:13:33;;;;;;;56.10;2.92;;;;;;;;;;5053236;28;21039;-72
2023/11/12 06:16:00;;;;;;;56.40;3.10;;;;;;;;;;5053387;28;20223;-72
2023/11/12 06:18:27;;;;;;;56.20;3.20;;;;;;;;;;5052956;28;20210;-72
2023/11/12 06:20:54;;;;;;;56.15;2.95;;;;;;;;;;5052903;28;20473;-72
2023/11/12 06:23:22;;;;;;;56.13;2.80;;;;;;;;;;5053090;28;20206;-72
2023/11/12 06:25:50;;;;;;;56.03;3.03;;;;;;;;;;5052928;28;20448;-72
2023/11/12 06:28:17;;;;;;;55.97;2.78;;;;;;;;;;5052860;28;20206;-72
2023/11/12 06:30:45;;;;;;;56.07;3.13;;;;;;;;;;5052793;28;20322;-72
2023/11/12 06:33:12;;;;;;;56.40;2.97;;;;;;;;;;5052876;28;20446;-72
2023/11/12 06:35:39;;;;;;;56.30;3.10;;;;;;;;;;5052880;28;20223;-72
2023/11/12 06:38:06;;;;;;;56.10;2.70;;;;;;;;;;5053150;28;20827;-73
2023/11/12 06:40:33;;;;;;;56.40;3.00;;;;;;;;;;5053040;28;20232;-72
2023/11/12 06:43:02;;;;;;;56.17;2.80;;;;;;;;;;5052761;28;20453;-72
2023/11/12 06:45:29;;;;;;;56.17;3.03;;;;;;;;;;5052686;28;20200;-72
2023/11/12 06:47:56;;;;;;;56.13;2.83;;;;;;;;;;5052642;28;20772;-72
2023/11/12 06:50:23;;;;;;;56.30;2.90;;;;;;;;;;5052651;28;20476;-72
2023/11/12 06:52:50;;;;;;;56.07;3.30;;;;;;;;;;5052816;28;20214;-72
2023/11/12 06:55:17;;;;;;;56.00;2.50;;;;;;;;;;5052620;28;20485;-72
2023/11/12 06:57:45;;;;;;;56.60;3.77;;;;;;;;;;5052473;28;20214;-72
2023/11/12 07:00:14;;;;;;;56.10;3.03;;;;;;;;;;5052451;28;20458;-72
2023/11/12 07:02:41;;;;;;;58.70;4.50;;;;;;;;;;5052493;28;20250;-72
2023/11/12 07:05:09;;;;;;;55.90;2.70;;;;;;;;;;5052286;28;20937;-72
2023/11/12 07:07:38;;;;;;;56.08;2.90;;;;;;;;;;5052341;28;20449;-72
2023/11/12 07:10:06;;;;;;;56.17;2.85;;;;;;;;;;5052167;28;20241;-72
2023/11/12 07:12:33;;;;;;;56.20;2.80;;;;;;;;;;5051820;28;20277;-72
2023/11/12 07:15:00;;;;;;;56.37;3.03;;;;;;;;;;5052086;28;20243;-72
2023/11/12 07:17:28;;;;;;;56.00;2.88;;;;;;;;;;5052150;28;20454;-72
2023/11/12 07:19:55;;;;;;;56.38;3.08;;;;;;;;;;5052338;28;20249;-72
2023/11/12 07:22:23;;;;;;;56.10;2.47;;;;;;;;;;5044160;28;20682;-72
2023/11/12 07:24:51;;;;;;;56.30;3.07;;;;;;;;;;5052055;28;20221;-72
2023/11/12 07:27:18;;;;;;;56.35;2.65;;;;;;;;;;5052453;28;20545;-72
2023/11/12 07:29:45;;;;;;;56.42;2.92;;;;;;;;;;5051952;28;20207;-72
2023/11/12 07:32:13;;;;;;;56.30;3.15;;;;;;;;;;5051693;28;20676;-73
2023/11/12 07:34:41;;;;;;;56.03;2.60;;;;;;;;;;5051813;28;20737;-71
2023/11/12 07:37:08;;;;;;;56.07;2.73;;;;;;;;;;5051188;28;20500;-72
2023/11/12 07:39:36;;;;;;;56.20;3.23;;;;;;;;;;5051727;28;20449;-72
2023/11/12 07:42:03;;;;;;;55.80;2.83;;;;;;;;;;5051398;28;20528;-72
2023/11/12 07:44:30;;;;;;;56.10;2.70;;;;;;;;;;5051684;28;20450;-72
2023/11/12 07:46:58;;;;;;;56.00;2.70;;;;;;;;;;5051205;28;20488;-72
2023/11/12 07:49:25;;;;;;;56.00;2.70;;;;;;;;;;5043332;28;20446;-72
2023/11/12 07:51:53;;;;;;;56.00;3.10;;;;;;;;;;5051735;28;20488;-72
2023/11/12 07:54:20;;;;;;;56.17;3.23;;;;;;;;;;5051385;28;20449;-72
2023/11/12 07:56:47;;;;;;;56.07;2.80;;;;;;;;;;5051326;28;20493;-72
2023/11/12 07:59:14;;;;;;;55.87;2.40;;;;;;;;;;5051530;28;20511;-72
2023/11/12 08:01:42;;;;;;;55.77;2.50;;;;;;;;;;5051231;28;20561;-72
2023/11/12 08:04:09;;;;;;;56.20;2.40;;;;;;;;;;5051171;28;20519;-71
2023/11/12 08:06:37;;;;;;;55.77;2.33;;;;;;;;;;5050871;28;20445;-71
2023/11/12 08:09:06;;;;;;;55.90;2.77;;;;;;;;;;5051023;28;20458;-72
2023/11/12 08:11:38;;;;;;;55.53;2.30;;;;;;;;;;5051659;28;20492;-72
2023/11/12 08:14:06;;;;;;;55.73;2.10;;;;;;;;;;5051208;28;20454;-72
2023/11/12 08:16:34;;;;;;;56.00;2.77;;;;;;;;;;5050763;28;20496;-72
2023/11/12 08:19:01;;;;;;;55.77;2.40;;;;;;;;;;5050835;28;20451;-72
2023/11/12 08:21:28;;;;;;;55.97;2.60;;;;;;;;;;5051044;28;20465;-72
2023/11/12 08:23:55;;;;;;;55.67;2.20;;;;;;;;;;5050488;28;20461;-72
2023/11/12 08:26:24;;;;;;;55.80;2.43;;;;;;;;;;5051083;28;20478;-72
2023/11/12 08:28:53;;;;;;;56.10;3.23;;;;;;;;;;5050793;28;20449;-72
2023/11/12 08:31:20;;;;;;;55.70;2.60;;;;;;;;;;5050747;28;20560;-72
2023/11/12 08:33:47;;;;;;;55.80;2.40;;;;;;;;;;5050669;28;20963;-72
2023/11/12 08:36:14;;;;;;;55.77;2.10;;;;;;;;;;5050834;28;20500;-72
2023/11/12 08:38:42;;;;;;;55.60;2.30;;;;;;;;;;5050886;28;20465;-72
2023/11/12 08:41:11;;;;;;;56.10;2.70;;;;;;;;;;5050679;28;20845;-72
2023/11/12 08:43:44;;;;;;;56.20;3.10;;;;;;;;;;5051005;28;20911;-72
2023/11/12 08:46:11;;;;;;;55.93;2.73;;;;;;;;;;5050477;28;20445;-72
2023/11/12 08:48:42;;;;;;;55.77;2.40;;;;;;;;;;5050963;28;20457;-72
2023/11/12 08:51:10;;;;;;;56.10;3.00;;;;;;;;;;5050728;28;20482;-72
2023/11/12 08:53:37;;;;;;;55.87;2.60;;;;;;;;;;5050446;28;20458;-72
2023/11/12 08:56:05;;;;;;;56.20;3.30;;;;;;;;;;5050671;28;20492;-72
2023/11/12 08:58:32;;;;;;;56.43;2.50;;;;;;;;;;5050570;28;20454;-72
2023/11/12 09:01:03;;;;;;;55.80;2.20;;;;;;;;;;5050503;28;20474;-72
2023/11/12 09:03:30;;;;;;;55.67;2.30;;;;;;;;;;5042835;28;20482;-72
2023/11/12 09:05:58;;;;;;;55.63;2.20;;;;;;;;;;5050684;28;20504;-72
2023/11/12 09:08:25;;;;;;;55.90;2.37;;;;;;;;;;5050539;28;20833;-72
2023/11/12 09:10:52;;;;;;;55.70;2.20;;;;;;;;;;5050312;28;20489;-72
2023/11/12 09:13:19;;;;;;;55.80;2.33;;;;;;;;;;5050176;28;20450;-72
2023/11/12 09:15:47;;;;;;;55.60;2.20;;;;;;;;;;5050539;28;20505;-72
2023/11/12 09:18:15;;;;;;;55.87;2.50;;;;;;;;;;5050410;28;20466;-72
2023/11/12 09:20:43;;;;;;;55.90;2.60;;;;;;;;;;5050556;28;20495;-72
2023/11/12 09:23:10;;;;;;;56.00;2.70;;;;;;;;;;5050395;28;20454;-72
2023/11/12 09:25:37;;;;;;;55.70;2.20;;;;;;;;;;5050446;28;20902;-72
2023/11/12 09:28:06;;;;;;;55.63;2.10;;;;;;;;;;5050181;28;20446;-72
2023/11/12 09:30:34;;;;;;;55.70;2.00;;;;;;;;;;5050431;28;20525;-72
2023/11/12 09:33:02;;;;;;;55.70;2.07;;;;;;;;;;5050459;28;20450;-72
2023/11/12 09:35:30;;;;;;;56.07;2.40;;;;;;;;;;5044210;28;20520;-72
2023/11/12 09:37:57;;;;;;;55.87;2.30;;;;;;;;;;5053679;28;20455;-72
2023/11/12 09:40:29;;;;;;;55.67;2.30;;;;;;;;;;5054011;28;20966;-72
2023/11/12 09:42:56;;;;;;;56.67;2.83;;;;;;;;;;5054090;28;20461;-72
2023/11/12 09:45:25;;;;;;;56.00;1.90;;;;;;;;;;5053596;28;20483;-71
2023/11/12 09:47:58;;;;;;;55.87;2.57;;;;;;;;;;5053856;28;20938;-71
2023/11/12 09:50:26;;;;;;;55.23;2.10;;;;;;;;;;5053709;28;20478;-71
2023/11/12 09:52:55;;;;;;;56.10;2.47;;;;;;;;;;5053623;28;20454;-72
2023/11/12 09:55:22;;;;;;;56.10;2.20;;;;;;;;;;5053633;28;20862;-72
2023/11/12 09:57:51;;;;;;;55.47;1.90;;;;;;;;;;5053570;28;20893;-72
2023/11/12 10:00:18;;;;;;;55.70;2.20;;;;;;;;;;5053655;28;20594;-72
2023/11/12 10:02:45;;;;;;;55.73;2.10;;;;;;;;;;5053314;28;20456;-72
2023/11/12 10:05:14;;;;;;;55.77;2.10;;;;;;;;;;5053154;28;20947;-72
2023/11/12 10:07:41;;;;;;;56.00;2.50;;;;;;;;;;5053260;28;20531;-72
2023/11/12 10:10:26;;;;;;;55.67;2.20;;;;;;;;;;5053211;28;20462;-72
2023/11/12 10:12:54;;;;;;;54.97;2.00;;;;;;;;;;5053535;28;20455;-72
2023/11/12 10:15:23;;;;;;;55.80;1.80;;;;;;;;;;5053150;28;20447;-71
2023/11/12 10:17:51;;;;;;;55.67;1.70;;;;;;;;;;5052897;28;20898;-71
2023/11/12 10:20:20;;;;;;;55.53;2.07;;;;;;;;;;5053270;28;20858;-71
2023/11/12 10:22:47;;;;;;;55.90;1.90;;;;;;;;;;5053095;28;20457;-71
2023/11/12 10:25:15;;;;;;;55.97;2.00;;;;;;;;;;5052890;28;20609;-71
2023/11/12 10:27:56;;;;;;;55.90;1.70;;;;;;;;;;5052811;28;20456;-71
2023/11/12 10:30:24;;;;;;;55.23;1.90;;;;;;;;;;5052701;28;20581;-71
2023/11/12 10:32:51;;;;;;;56.10;2.33;;;;;;;;;;5053244;28;20447;-71
2023/11/12 10:35:28;;;;;;;55.70;2.77;;;;;;;;;;5052947;28;20459;-71
2023/11/12 10:37:56;;;;;;;54.87;1.90;;;;;;;;;;5052923;28;20490;-71
2023/11/12 10:40:24;;;;;;;55.80;2.17;;;;;;;;;;5052892;28;20473;-72
2023/11/12 10:42:58;;;;;;;56.07;2.07;;;;;;;;;;5052617;28;20456;-72
2023/11/12 10:45:27;;;;;;;56.10;3.07;;;;;;;;;;5052990;28;20462;-71
2023/11/12 10:47:56;;;;;;;55.90;2.10;;;;;;;;;;5051593;28;20954;-71
2023/11/12 10:50:24;;;;;;;55.43;2.30;;;;;;;;;;5052416;28;20481;-71
2023/11/12 10:52:54;;;;;;;55.77;2.17;;;;;;;;;;5052262;28;20457;-71
2023/11/12 10:55:22;;;;;;;55.53;2.17;;;;;;;;;;5052278;28;20800;-71
2023/11/12 10:57:49;;;;;;;55.70;1.80;;;;;;;;;;5052561;28;20569;-71
2023/11/12 11:00:19;;;;;;;55.43;1.90;;;;;;;;;;5052500;28;20857;-71
2023/11/12 11:02:48;;;;;;;55.90;1.83;;;;;;;;;;5052584;28;20541;-71
2023/11/12 11:05:16;;;;;;;55.47;1.87;;;;;;;;;;5052279;28;20447;-71
2023/11/12 11:07:43;;;;;;;54.87;1.77;;;;;;;;;;5052434;28;20443;-72
2023/11/12 11:10:11;;;;;;;56.60;2.33;;;;;;;;;;5052196;28;20570;-72
2023/11/12 11:12:39;;;;;;;56.13;2.20;;;;;;;;;;5052646;28;20451;-72
2023/11/12 11:15:24;;;;;;;56.50;2.40;;;;;;;;;;5052530;28;20529;-72
2023/11/12 11:17:53;;;;;;;55.83;1.73;;;;;;;;;;5052199;28;20489;-72
2023/11/12 11:20:20;;;;;;;56.47;2.73;;;;;;;;;;5052188;28;20497;-71
2023/11/12 11:22:47;;;;;;;55.60;1.73;;;;;;;;;;5052249;28;20456;-72
2023/11/12 11:25:21;;;;;;;55.67;1.80;;;;;;;;;;5051899;28;20443;-71
2023/11/12 11:27:50;;;;;;;55.70;1.73;;;;;;;;;;5052107;28;20986;-71
2023/11/12 11:30:17;;;;;;;56.70;2.57;;;;;;;;;;5052197;28;20475;-71
2023/11/12 11:32:59;;;;;;;55.40;1.93;;;;;;;;;;5051650;28;20973;-71
2023/11/12 11:35:27;;;;;;;55.97;2.30;;;;;;;;;;5051584;28;20458;-71
2023/11/12 11:38:12;;;;;;;55.87;2.40;;;;;;;;;;5051316;28;20854;-71
2023/11/12 11:40:42;;;;;;;55.70;2.00;;;;;;;;;;5044393;28;20473;-71
2023/11/12 11:43:31;;;;;;;55.37;1.90;;;;;;;;;;5051206;28;20458;-71
2023/11/12 11:46:08;;;;;;;55.77;1.90;;;;;;;;;;5051721;28;20839;-71
2023/11/12 11:48:37;;;;;;;55.23;1.97;;;;;;;;;;5051644;28;20439;-71
2023/11/12 11:51:19;;;;;;;55.90;2.10;;;;;;;;;;5051369;28;20500;-71
2023/11/12 11:53:46;;;;;;;55.27;2.20;;;;;;;;;;5051281;28;20454;-71
2023/11/12 11:56:19;;;;;;;55.47;1.90;;;;;;;;;;5051572;28;20448;-71
2023/11/12 11:58:50;;;;;;;55.50;2.00;;;;;;;;;;5050732;28;20843;-71
2023/11/12 12:01:17;;;;;;;55.90;2.20;;;;;;;;;;5051406;28;20478;-71
2023/11/12 12:03:46;;;;;;;55.57;2.10;;;;;;;;;;5051774;28;20521;-72
2023/11/12 12:06:16;;;;;;;55.77;2.00;;;;;;;;;;5051215;28;20451;-72
2023/11/12 12:08:50;;;;;;;55.27;2.20;;;;;;;;;;5051488;28;20469;-72
2023/11/12 12:11:17;;;;;;;55.60;2.00;;;;;;;;;;5051205;28;20474;-71
2023/11/12 12:13:55;;;;;;;55.80;1.93;;;;;;;;;;5051499;28;20457;-71
2023/11/12 12:16:26;;;;;;;54.93;1.83;;;;;;;;;;5051377;28;20446;-71
2023/11/12 12:18:55;;;;;;;56.03;2.43;;;;;;;;;;5051242;28;20455;-72
2023/11/12 12:21:22;;;;;;;56.40;2.70;;;;;;;;;;5051403;28;20475;-72
2023/11/12 12:23:49;;;;;;;55.57;2.00;;;;;;;;;;5051481;28;20447;-72
2023/11/12 12:26:16;;;;;;;55.80;1.60;;;;;;;;;;5051276;28;20463;-72
2023/11/12 12:28:44;;;;;;;56.47;2.53;;;;;;;;;;5051183;28;20446;-72
2023/11/12 12:31:12;;;;;;;56.10;2.20;;;;;;;;;;5051270;28;20481;-72
2023/11/12 12:33:39;;;;;;;55.90;2.27;;;;;;;;;;5051324;28;20499;-72
2023/11/12 12:36:14;;;;;;;55.87;2.50;;;;;;;;;;5051308;28;20798;-72
2023/11/12 12:38:56;;;;;;;55.67;2.20;;;;;;;;;;5051346;28;20486;-71
2023/11/12 12:41:23;;;;;;;55.90;2.03;;;;;;;;;;5051038;28;20826;-72
2023/11/12 12:43:52;;;;;;;55.00;1.90;;;;;;;;;;5050902;28;20470;-72
2023/11/12 12:46:20;;;;;;;56.60;2.40;;;;;;;;;;5050998;28;20448;-72
2023/11/12 12:48:51;;;;;;;55.57;1.90;;;;;;;;;;5051027;28;20449;-72
2023/11/12 12:51:19;;;;;;;55.43;1.80;;;;;;;;;;5051115;28;20466;-71
2023/11/12 12:53:46;;;;;;;55.57;2.00;;;;;;;;;;5051106;28;20461;-71
2023/11/12 12:56:14;;;;;;;55.80;1.70;;;;;;;;;;5050838;28;20447;-71
2023/11/12 12:58:41;;;;;;;56.10;2.20;;;;;;;;;;5051120;28;20494;-71
2023/11/12 13:01:10;;;;;;;55.70;2.13;;;;;;;;;;5051181;28;20479;-72
2023/11/12 13:03:41;;;;;;;56.20;2.40;;;;;;;;;;5051298;28;20455;-72
2023/11/12 13:06:09;;;;;;;55.37;2.20;;;;;;;;;;5051109;28;20454;-72
2023/11/12 13:08:38;;;;;;;55.33;2.50;;;;;;;;;;5050479;28;20482;-72
2023/11/12 13:11:06;;;;;;;56.20;2.77;;;;;;;;;;5053368;28;20536;-72
2023/11/12 13:13:33;;;;;;;55.77;2.30;;;;;;;;;;5054754;28;20534;-72
2023/11/12 13:16:00;;;;;;;55.53;1.93;;;;;;;;;;5054607;28;20454;-72
2023/11/12 13:18:27;;;;;;;55.60;2.23;;;;;;;;;;5054551;28;20540;-71
2023/11/12 13:20:55;;;;;;;55.50;2.20;;;;;;;;;;5054468;28;20474;-71
2023/11/12 13:23:23;;;;;;;56.20;2.20;;;;;;;;;;5054110;28;20458;-71
2023/11/12 13:25:53;;;;;;;55.77;1.97;;;;;;;;;;5054684;28;20457;-71
2023/11/12 13:28:21;;;;;;;55.77;1.97;;;;;;;;;;5054195;28;20966;-71
2023/11/12 13:30:48;;;;;;;55.10;1.90;;;;;;;;;;5054292;28;20474;-71
2023/11/12 13:33:15;;;;;;;55.97;2.60;;;;;;;;;;5054231;28;20454;-71
2023/11/12 13:35:42;;;;;;;55.67;2.20;;;;;;;;;;5054202;28;20486;-71
2023/11/12 13:38:10;;;;;;;55.33;2.03;;;;;;;;;;5053338;28;20497;-71
2023/11/12 13:40:39;;;;;;;55.80;1.80;;;;;;;;;;5053961;28;20466;-71
2023/11/12 13:43:08;;;;;;;55.37;1.90;;;;;;;;;;5049034;28;20534;-71
2023/11/12 13:45:37;;;;;;;55.90;2.40;;;;;;;;;;5053276;28;20447;-71
2023/11/12 13:48:06;;;;;;;55.87;1.90;;;;;;;;;;5053332;28;20506;-71
2023/11/12 13:50:35;;;;;;;55.67;2.33;;;;;;;;;;5053164;28;20470;-71
2023/11/12 13:53:08;;;;;;;55.50;1.90;;;;;;;;;;5053725;28;20482;-71
2023/11/12 13:55:37;;;;;;;55.73;2.00;;;;;;;;;;5053611;28;20729;-71
2023/11/12 13:58:06;;;;;;;55.90;2.27;;;;;;;;;;5053332;28;21050;-71
2023/11/12 14:00:35;;;;;;;55.60;2.00;;;;;;;;;;5053186;28;20544;-71
2023/11/12 14:03:02;;;;;;;55.57;1.77;;;;;;;;;;5053164;28;20544;-71
2023/11/12 14:05:30;;;;;;;55.23;1.70;;;;;;;;;;5053478;28;20446;-71
2023/11/12 14:07:59;;;;;;;55.77;2.00;;;;;;;;;;5053585;28;20468;-71
2023/11/12 14:10:26;;;;;;;55.80;2.30;;;;;;;;;;5052958;28;20490;-71
2023/11/12 14:12:54;;;;;;;54.90;1.87;;;;;;;;;;5053439;28;20461;-71
2023/11/12 14:15:21;;;;;;;56.33;3.93;;;;;;;;;;5053254;28;20883;-72
2023/11/12 14:17:50;;;;;;;56.30;2.87;;;;;;;;;;5054581;28;20530;-71
2023/11/12 14:20:22;;;;;;;55.43;1.83;;;;;;;;;;5055095;28;20561;-71
2023/11/12 14:22:50;;;;;;;55.80;1.97;;;;;;;;;;5053990;28;20451;-71
2023/11/12 14:25:19;;;;;;;55.77;2.20;;;;;;;;;;5062069;28;20444;-71
2023/11/12 14:27:48;;;;;;;56.00;2.27;;;;;;;;;;5076683;28;20450;-72
2023/11/12 14:30:18;;;;;;;55.70;2.10;;;;;;;;;;5077060;28;20438;-72
2023/11/12 14:32:45;;;;;;;56.00;2.40;;;;;;;;;;5077161;28;20962;-71
2023/11/12 14:35:15;;;;;;;55.73;2.00;;;;;;;;;;5077162;28;20436;-71
2023/11/12 14:37:42;;;;;;;55.80;2.00;;;;;;;;;;5077171;28;20482;-71